BEL6NQ EKCH-EBBR
Flight info
| Callsign | BEL6NQ |
|---|---|
| Flight time | 1h 17m |
| Altitude | 38000 |
| Route | LANGO M611 ALASA DCT WANZA DCT EEL DCT SUSET/N0435F390 Z310 WOODY |
| Aircraft | A320/M-SDE3FGHIRWY/LB1 |
Departure
| Time | 2026-04-26 06:14 |
|---|---|
| Airport | Copenhagen Kastrup Airport (EKCH) |
Arrival
| Time | 2026-04-26 07:32 |
|---|---|
| Airport | Brussels Airport (EBBR) |
| Time | Latitude | Longitude | Altitude | Speed | Heading |
|---|---|---|---|---|---|
| 2026-04-26 05:41 | 55.62703 | 12.64166 | 27 ft | 0 kts | 32° |
| 2026-04-26 06:00 | 55.62690 | 12.64151 | 27 ft | 4 kts | 32° |
| 2026-04-26 06:00 | 55.62670 | 12.64129 | 26 ft | 2 kts | 33° |
| 2026-04-26 06:00 | 55.62652 | 12.64100 | 25 ft | 4 kts | 73° |
| 2026-04-26 06:01 | 55.62654 | 12.64059 | 25 ft | 4 kts | 120° |
| 2026-04-26 06:01 | 55.62650 | 12.64068 | 27 ft | 4 kts | 123° |
| 2026-04-26 06:01 | 55.62635 | 12.64108 | 24 ft | 4 kts | 123° |
| 2026-04-26 06:01 | 55.62630 | 12.64123 | 26 ft | 0 kts | 123° |
| 2026-04-26 06:06 | 55.62629 | 12.64124 | 25 ft | 1 kts | 123° |
| 2026-04-26 06:06 | 55.62616 | 12.64160 | 24 ft | 4 kts | 123° |
| 2026-04-26 06:06 | 55.62596 | 12.64216 | 25 ft | 9 kts | 122° |
| 2026-04-26 06:06 | 55.62563 | 12.64306 | 25 ft | 9 kts | 122° |
| 2026-04-26 06:07 | 55.62545 | 12.64355 | 24 ft | 5 kts | 124° |
| 2026-04-26 06:07 | 55.62495 | 12.64488 | 24 ft | 15 kts | 123° |
| 2026-04-26 06:07 | 55.62439 | 12.64637 | 26 ft | 14 kts | 123° |
| 2026-04-26 06:07 | 55.62386 | 12.64766 | 24 ft | 12 kts | 143° |
| 2026-04-26 06:08 | 55.62304 | 12.64785 | 24 ft | 11 kts | 178° |
| 2026-04-26 06:08 | 55.62230 | 12.64786 | 24 ft | 10 kts | 195° |
| 2026-04-26 06:08 | 55.62174 | 12.64725 | 25 ft | 9 kts | 213° |
| 2026-04-26 06:08 | 55.62118 | 12.64664 | 25 ft | 10 kts | 212° |
| 2026-04-26 06:09 | 55.62058 | 12.64598 | 24 ft | 10 kts | 212° |
| 2026-04-26 06:09 | 55.61992 | 12.64521 | 24 ft | 14 kts | 208° |
| 2026-04-26 06:09 | 55.61899 | 12.64509 | 24 ft | 13 kts | 168° |
| 2026-04-26 06:09 | 55.61814 | 12.64538 | 25 ft | 12 kts | 169° |
| 2026-04-26 06:10 | 55.61734 | 12.64563 | 26 ft | 11 kts | 170° |
| 2026-04-26 06:10 | 55.61664 | 12.64550 | 26 ft | 10 kts | 211° |
| 2026-04-26 06:10 | 55.61609 | 12.64488 | 27 ft | 9 kts | 213° |
| 2026-04-26 06:10 | 55.61559 | 12.64430 | 24 ft | 8 kts | 214° |
| 2026-04-26 06:11 | 55.61479 | 12.64336 | 26 ft | 24 kts | 213° |
| 2026-04-26 06:11 | 55.61292 | 12.64119 | 24 ft | 39 kts | 212° |
| 2026-04-26 06:11 | 55.61063 | 12.63859 | 24 ft | 39 kts | 213° |
| 2026-04-26 06:11 | 55.60866 | 12.63633 | 25 ft | 18 kts | 212° |
| 2026-04-26 06:12 | 55.60799 | 12.63593 | 24 ft | 8 kts | 167° |
| 2026-04-26 06:12 | 55.60749 | 12.63676 | 24 ft | 18 kts | 130° |
| 2026-04-26 06:12 | 55.60682 | 12.63859 | 26 ft | 13 kts | 86° |
| 2026-04-26 06:12 | 55.60713 | 12.63924 | 28 ft | 0 kts | 41° |
| 2026-04-26 06:13 | 55.60779 | 12.64024 | 26 ft | 45 kts | 40° |
| 2026-04-26 06:14 | 55.61197 | 12.64669 | 24 ft | 113 kts | 40° |
| 2026-04-26 06:14 | 55.61920 | 12.65796 | 163 ft | 151 kts | 39° |
| 2026-04-26 06:14 | 55.62690 | 12.66997 | 880 ft | 147 kts | 38° |
| 2026-04-26 06:14 | 55.63463 | 12.68215 | 1649 ft | 149 kts | 37° |
| 2026-04-26 06:15 | 55.64251 | 12.69447 | 2285 ft | 157 kts | 36° |
| 2026-04-26 06:15 | 55.64699 | 12.70136 | 2488 ft | 169 kts | 36° |
| 2026-04-26 06:15 | 55.65336 | 12.71107 | 2733 ft | 183 kts | 35° |
| 2026-04-26 06:15 | 55.66371 | 12.72642 | 3131 ft | 204 kts | 35° |
| 2026-04-26 06:16 | 55.67516 | 12.74330 | 3732 ft | 219 kts | 35° |
| 2026-04-26 06:16 | 55.67952 | 12.74976 | 4041 ft | 220 kts | 35° |
| 2026-04-26 06:16 | 55.68993 | 12.76535 | 4800 ft | 226 kts | 37° |
| 2026-04-26 06:17 | 55.69962 | 12.78863 | 5402 ft | 253 kts | 62° |
| 2026-04-26 06:17 | 55.70293 | 12.82044 | 6292 ft | 272 kts | 88° |
| 2026-04-26 06:17 | 55.69752 | 12.85322 | 7200 ft | 287 kts | 117° |
| 2026-04-26 06:17 | 55.68328 | 12.87897 | 8041 ft | 302 kts | 149° |
| 2026-04-26 06:18 | 55.66365 | 12.89354 | 8888 ft | 309 kts | 160° |
| 2026-04-26 06:18 | 55.64253 | 12.90256 | 9736 ft | 315 kts | 175° |
| 2026-04-26 06:18 | 55.62040 | 12.90278 | 10446 ft | 324 kts | 189° |
| 2026-04-26 06:18 | 55.59779 | 12.89407 | 10747 ft | 342 kts | 204° |
| 2026-04-26 06:19 | 55.57617 | 12.87518 | 11248 ft | 349 kts | 220° |
| 2026-04-26 06:19 | 55.55762 | 12.84791 | 11961 ft | 347 kts | 233° |
| 2026-04-26 06:19 | 55.54175 | 12.81598 | 12710 ft | 344 kts | 243° |
| 2026-04-26 06:19 | 55.52795 | 12.78112 | 13487 ft | 348 kts | 244° |
| 2026-04-26 06:20 | 55.51431 | 12.74615 | 14226 ft | 353 kts | 245° |
| 2026-04-26 06:20 | 55.50035 | 12.71027 | 14919 ft | 356 kts | 245° |
| 2026-04-26 06:20 | 55.48624 | 12.67412 | 15634 ft | 359 kts | 245° |
| 2026-04-26 06:20 | 55.47197 | 12.63773 | 16339 ft | 362 kts | 245° |
| 2026-04-26 06:21 | 55.45754 | 12.60106 | 17045 ft | 365 kts | 245° |
| 2026-04-26 06:21 | 55.44296 | 12.56408 | 17748 ft | 368 kts | 245° |
| 2026-04-26 06:21 | 55.42826 | 12.52685 | 18443 ft | 371 kts | 245° |
| 2026-04-26 06:21 | 55.41342 | 12.48934 | 19059 ft | 375 kts | 245° |
| 2026-04-26 06:22 | 55.39847 | 12.45160 | 19658 ft | 377 kts | 245° |
| 2026-04-26 06:22 | 55.38342 | 12.41366 | 20266 ft | 380 kts | 245° |
| 2026-04-26 06:22 | 55.36825 | 12.37542 | 20876 ft | 383 kts | 245° |
| 2026-04-26 06:22 | 55.35290 | 12.33683 | 21484 ft | 385 kts | 245° |
| 2026-04-26 06:23 | 55.33747 | 12.29812 | 22076 ft | 388 kts | 245° |
| 2026-04-26 06:23 | 55.32207 | 12.25957 | 22673 ft | 391 kts | 245° |
| 2026-04-26 06:23 | 55.30637 | 12.22031 | 23245 ft | 394 kts | 245° |
| 2026-04-26 06:23 | 55.29058 | 12.18091 | 23867 ft | 396 kts | 245° |
| 2026-04-26 06:24 | 55.27469 | 12.14131 | 24366 ft | 398 kts | 245° |
| 2026-04-26 06:24 | 55.25869 | 12.10156 | 24866 ft | 400 kts | 245° |
| 2026-04-26 06:24 | 55.24261 | 12.06168 | 25357 ft | 401 kts | 245° |
| 2026-04-26 06:24 | 55.22648 | 12.02173 | 25841 ft | 403 kts | 244° |
| 2026-04-26 06:25 | 55.21024 | 11.98153 | 26305 ft | 404 kts | 244° |
| 2026-04-26 06:25 | 55.19399 | 11.94128 | 26743 ft | 406 kts | 244° |
| 2026-04-26 06:25 | 55.17762 | 11.90081 | 27207 ft | 407 kts | 244° |
| 2026-04-26 06:25 | 55.16121 | 11.86031 | 27658 ft | 409 kts | 244° |
| 2026-04-26 06:26 | 55.14470 | 11.81969 | 28090 ft | 410 kts | 244° |
| 2026-04-26 06:26 | 55.12814 | 11.77901 | 28523 ft | 412 kts | 244° |
| 2026-04-26 06:26 | 55.11147 | 11.73812 | 28945 ft | 414 kts | 243° |
| 2026-04-26 06:26 | 55.09476 | 11.69716 | 29347 ft | 415 kts | 243° |
| 2026-04-26 06:27 | 55.07793 | 11.65592 | 29755 ft | 417 kts | 243° |
| 2026-04-26 06:27 | 55.06103 | 11.61461 | 30141 ft | 419 kts | 243° |
| 2026-04-26 06:27 | 55.04404 | 11.57323 | 30489 ft | 421 kts | 243° |
| 2026-04-26 06:27 | 55.02692 | 11.53166 | 30758 ft | 422 kts | 242° |
| 2026-04-26 06:28 | 55.00975 | 11.49005 | 31072 ft | 424 kts | 242° |
| 2026-04-26 06:28 | 54.99251 | 11.44828 | 31360 ft | 425 kts | 242° |
| 2026-04-26 06:28 | 54.97521 | 11.40638 | 31622 ft | 427 kts | 242° |
| 2026-04-26 06:28 | 54.95781 | 11.36428 | 31878 ft | 429 kts | 242° |
| 2026-04-26 06:29 | 54.94040 | 11.32225 | 32219 ft | 428 kts | 242° |
| 2026-04-26 06:29 | 54.92294 | 11.28027 | 32602 ft | 427 kts | 242° |
| 2026-04-26 06:29 | 54.90570 | 11.23901 | 32979 ft | 427 kts | 241° |
| 2026-04-26 06:29 | 54.88828 | 11.19736 | 33349 ft | 426 kts | 242° |
| 2026-04-26 06:30 | 54.87092 | 11.15577 | 33724 ft | 425 kts | 242° |
| 2026-04-26 06:30 | 54.85362 | 11.11425 | 34113 ft | 424 kts | 242° |
| 2026-04-26 06:30 | 54.83632 | 11.07282 | 34465 ft | 423 kts | 242° |
| 2026-04-26 06:30 | 54.81904 | 11.03156 | 34763 ft | 423 kts | 241° |
| 2026-04-26 06:31 | 54.80170 | 10.99034 | 35037 ft | 423 kts | 241° |
| 2026-04-26 06:31 | 54.78435 | 10.94911 | 35304 ft | 423 kts | 241° |
| 2026-04-26 06:31 | 54.76692 | 10.90774 | 35532 ft | 424 kts | 241° |
| 2026-04-26 06:31 | 54.74951 | 10.86650 | 35773 ft | 424 kts | 240° |
| 2026-04-26 06:32 | 54.73228 | 10.82578 | 36018 ft | 424 kts | 240° |
| 2026-04-26 06:32 | 54.71553 | 10.78631 | 36275 ft | 424 kts | 239° |
| 2026-04-26 06:32 | 54.69806 | 10.74526 | 36516 ft | 424 kts | 239° |
| 2026-04-26 06:32 | 54.68059 | 10.70425 | 36746 ft | 424 kts | 239° |
| 2026-04-26 06:33 | 54.66312 | 10.66325 | 36975 ft | 424 kts | 239° |
| 2026-04-26 06:33 | 54.64561 | 10.62220 | 37194 ft | 424 kts | 239° |
| 2026-04-26 06:33 | 54.62807 | 10.58106 | 37407 ft | 425 kts | 239° |
| 2026-04-26 06:33 | 54.61055 | 10.54002 | 37619 ft | 425 kts | 239° |
| 2026-04-26 06:34 | 54.59298 | 10.49891 | 37833 ft | 425 kts | 239° |
| 2026-04-26 06:34 | 54.57537 | 10.45783 | 38044 ft | 425 kts | 239° |
| 2026-04-26 06:34 | 54.55778 | 10.41687 | 38225 ft | 426 kts | 239° |
| 2026-04-26 06:35 | 54.52251 | 10.33519 | 38305 ft | 424 kts | 239° |
| 2026-04-26 06:35 | 54.48721 | 10.25372 | 38325 ft | 424 kts | 239° |
| 2026-04-26 06:36 | 54.45220 | 10.17301 | 38328 ft | 424 kts | 239° |
| 2026-04-26 06:36 | 54.41694 | 10.09188 | 38328 ft | 424 kts | 239° |
| 2026-04-26 06:37 | 54.38161 | 10.01079 | 38333 ft | 424 kts | 238° |
| 2026-04-26 06:37 | 54.34613 | 9.92993 | 38330 ft | 424 kts | 238° |
| 2026-04-26 06:38 | 54.31063 | 9.84918 | 38294 ft | 424 kts | 238° |
| 2026-04-26 06:38 | 54.27514 | 9.76879 | 38305 ft | 423 kts | 238° |
| 2026-04-26 06:39 | 54.23956 | 9.68850 | 38311 ft | 423 kts | 238° |
| 2026-04-26 06:39 | 54.20405 | 9.60840 | 38312 ft | 423 kts | 238° |
| 2026-04-26 06:40 | 54.16869 | 9.52899 | 38300 ft | 422 kts | 237° |
| 2026-04-26 06:40 | 54.13304 | 9.44913 | 38312 ft | 422 kts | 237° |
| 2026-04-26 06:41 | 54.09741 | 9.36963 | 38308 ft | 422 kts | 237° |
| 2026-04-26 06:41 | 54.06776 | 9.30370 | 38306 ft | 421 kts | 237° |
| 2026-04-26 06:42 | 54.02632 | 9.21174 | 38316 ft | 421 kts | 237° |
| 2026-04-26 06:42 | 53.99638 | 9.14555 | 38315 ft | 421 kts | 237° |
| 2026-04-26 06:43 | 53.96065 | 9.06675 | 38319 ft | 421 kts | 237° |
| 2026-04-26 06:43 | 53.92482 | 8.98810 | 38331 ft | 421 kts | 237° |
| 2026-04-26 06:44 | 53.88924 | 8.91015 | 38302 ft | 421 kts | 236° |
| 2026-04-26 06:44 | 53.85331 | 8.83181 | 38326 ft | 420 kts | 236° |
| 2026-04-26 06:45 | 53.81742 | 8.75364 | 38339 ft | 420 kts | 236° |
| 2026-04-26 06:45 | 53.78159 | 8.67566 | 38344 ft | 419 kts | 236° |
| 2026-04-26 06:46 | 53.74567 | 8.59799 | 38340 ft | 419 kts | 235° |
| 2026-04-26 06:46 | 53.70969 | 8.52043 | 38343 ft | 419 kts | 235° |
| 2026-04-26 06:47 | 53.67370 | 8.44307 | 38326 ft | 419 kts | 235° |
| 2026-04-26 06:47 | 53.63765 | 8.36591 | 38323 ft | 419 kts | 235° |
| 2026-04-26 06:48 | 53.60187 | 8.28940 | 38323 ft | 418 kts | 234° |
| 2026-04-26 06:48 | 53.56579 | 8.21243 | 38330 ft | 418 kts | 234° |
| 2026-04-26 06:49 | 53.52967 | 8.13578 | 38335 ft | 418 kts | 234° |
| 2026-04-26 06:49 | 53.49352 | 8.05925 | 38337 ft | 417 kts | 234° |
| 2026-04-26 06:50 | 53.45740 | 7.98305 | 38322 ft | 417 kts | 233° |
| 2026-04-26 06:50 | 53.42145 | 7.90736 | 38331 ft | 417 kts | 233° |
| 2026-04-26 06:51 | 53.38519 | 7.83127 | 38335 ft | 417 kts | 233° |
| 2026-04-26 06:51 | 53.33071 | 7.71734 | 38336 ft | 418 kts | 233° |
| 2026-04-26 06:52 | 53.29435 | 7.64163 | 38346 ft | 418 kts | 233° |
| 2026-04-26 06:52 | 53.25785 | 7.56610 | 38350 ft | 417 kts | 233° |
| 2026-04-26 06:53 | 53.22140 | 7.49065 | 38359 ft | 417 kts | 233° |
| 2026-04-26 06:53 | 53.18522 | 7.41588 | 38360 ft | 417 kts | 233° |
| 2026-04-26 06:54 | 53.14861 | 7.34060 | 38359 ft | 417 kts | 232° |
| 2026-04-26 06:54 | 53.11204 | 7.26567 | 38357 ft | 417 kts | 232° |
| 2026-04-26 06:55 | 53.07548 | 7.19072 | 38354 ft | 417 kts | 232° |
| 2026-04-26 06:55 | 53.03889 | 7.11600 | 38337 ft | 417 kts | 232° |
| 2026-04-26 06:56 | 53.00216 | 7.04143 | 38342 ft | 417 kts | 232° |
| 2026-04-26 06:56 | 52.96546 | 6.96702 | 38347 ft | 416 kts | 232° |
| 2026-04-26 06:57 | 52.92869 | 6.89280 | 38354 ft | 416 kts | 232° |
| 2026-04-26 06:57 | 52.89061 | 6.82048 | 38349 ft | 417 kts | 228° |
| 2026-04-26 06:58 | 52.85051 | 6.75197 | 38349 ft | 417 kts | 227° |
| 2026-04-26 06:58 | 52.80981 | 6.68345 | 38327 ft | 417 kts | 227° |
| 2026-04-26 06:59 | 52.76956 | 6.61439 | 38328 ft | 417 kts | 228° |
| 2026-04-26 06:59 | 52.72950 | 6.54504 | 38335 ft | 417 kts | 228° |
| 2026-04-26 07:00 | 52.68940 | 6.47591 | 38334 ft | 417 kts | 227° |
| 2026-04-26 07:00 | 52.64907 | 6.40685 | 38339 ft | 417 kts | 227° |
| 2026-04-26 07:01 | 52.60886 | 6.33804 | 38343 ft | 417 kts | 227° |
| 2026-04-26 07:01 | 52.56857 | 6.26937 | 38329 ft | 417 kts | 227° |
| 2026-04-26 07:02 | 52.52819 | 6.20077 | 38334 ft | 418 kts | 227° |
| 2026-04-26 07:02 | 52.48799 | 6.13262 | 38336 ft | 418 kts | 227° |
| 2026-04-26 07:03 | 52.44728 | 6.06382 | 38337 ft | 418 kts | 227° |
| 2026-04-26 07:03 | 52.42712 | 6.02975 | 37829 ft | 422 kts | 227° |
| 2026-04-26 07:03 | 52.40671 | 5.99533 | 37229 ft | 420 kts | 227° |
| 2026-04-26 07:04 | 52.38634 | 5.96099 | 36649 ft | 420 kts | 226° |
| 2026-04-26 07:04 | 52.36597 | 5.92674 | 36078 ft | 419 kts | 226° |
| 2026-04-26 07:04 | 52.34565 | 5.89269 | 35523 ft | 417 kts | 226° |
| 2026-04-26 07:04 | 52.32544 | 5.85889 | 34982 ft | 414 kts | 226° |
| 2026-04-26 07:05 | 52.30532 | 5.82529 | 34453 ft | 411 kts | 226° |
| 2026-04-26 07:05 | 52.28533 | 5.79194 | 33857 ft | 409 kts | 226° |
| 2026-04-26 07:05 | 52.26548 | 5.75887 | 33260 ft | 407 kts | 226° |
| 2026-04-26 07:05 | 52.24572 | 5.72599 | 32677 ft | 405 kts | 226° |
| 2026-04-26 07:06 | 52.22606 | 5.69331 | 32104 ft | 403 kts | 226° |
| 2026-04-26 07:06 | 52.20647 | 5.66081 | 31540 ft | 401 kts | 226° |
| 2026-04-26 07:06 | 52.18697 | 5.62850 | 30998 ft | 399 kts | 226° |
| 2026-04-26 07:06 | 52.16756 | 5.59636 | 30447 ft | 397 kts | 226° |
| 2026-04-26 07:07 | 52.14825 | 5.56437 | 29824 ft | 395 kts | 226° |
| 2026-04-26 07:07 | 52.12909 | 5.53267 | 29402 ft | 389 kts | 226° |
| 2026-04-26 07:07 | 52.09175 | 5.47116 | 29351 ft | 380 kts | 226° |
| 2026-04-26 07:08 | 52.05462 | 5.41018 | 29349 ft | 379 kts | 226° |
| 2026-04-26 07:08 | 52.01773 | 5.34965 | 29349 ft | 379 kts | 226° |
| 2026-04-26 07:09 | 51.99916 | 5.31921 | 29234 ft | 380 kts | 226° |
| 2026-04-26 07:09 | 51.98060 | 5.28884 | 28950 ft | 377 kts | 226° |
| 2026-04-26 07:09 | 51.96218 | 5.25871 | 28677 ft | 375 kts | 226° |
| 2026-04-26 07:09 | 51.94386 | 5.22877 | 28410 ft | 374 kts | 226° |
| 2026-04-26 07:10 | 51.88914 | 5.13964 | 27596 ft | 367 kts | 226° |
| 2026-04-26 07:11 | 51.85345 | 5.08177 | 26766 ft | 359 kts | 226° |
| 2026-04-26 07:11 | 51.83609 | 5.05368 | 26347 ft | 356 kts | 226° |
| 2026-04-26 07:11 | 51.81845 | 5.02507 | 25911 ft | 353 kts | 226° |
| 2026-04-26 07:11 | 51.80133 | 4.99737 | 25480 ft | 351 kts | 226° |
| 2026-04-26 07:12 | 51.78411 | 4.96952 | 25037 ft | 349 kts | 226° |
| 2026-04-26 07:12 | 51.76697 | 4.94182 | 24586 ft | 348 kts | 226° |
| 2026-04-26 07:12 | 51.74989 | 4.91429 | 24141 ft | 346 kts | 226° |
| 2026-04-26 07:12 | 51.73283 | 4.88691 | 23641 ft | 346 kts | 226° |
| 2026-04-26 07:13 | 51.71584 | 4.85966 | 23185 ft | 343 kts | 226° |
| 2026-04-26 07:13 | 51.69896 | 4.83262 | 22743 ft | 340 kts | 226° |
| 2026-04-26 07:13 | 51.68224 | 4.80583 | 22308 ft | 338 kts | 226° |
| 2026-04-26 07:13 | 51.66565 | 4.77920 | 21888 ft | 335 kts | 226° |
| 2026-04-26 07:14 | 51.64916 | 4.75279 | 21459 ft | 333 kts | 226° |
| 2026-04-26 07:14 | 51.63275 | 4.72653 | 21036 ft | 332 kts | 226° |
| 2026-04-26 07:14 | 51.61639 | 4.70038 | 20620 ft | 330 kts | 226° |
| 2026-04-26 07:14 | 51.60010 | 4.67440 | 20186 ft | 329 kts | 226° |
| 2026-04-26 07:15 | 51.58387 | 4.64855 | 19780 ft | 328 kts | 226° |
| 2026-04-26 07:15 | 51.56765 | 4.62276 | 19363 ft | 327 kts | 226° |
| 2026-04-26 07:15 | 51.55172 | 4.59743 | 18962 ft | 326 kts | 226° |
| 2026-04-26 07:15 | 51.53558 | 4.57183 | 18546 ft | 325 kts | 226° |
| 2026-04-26 07:16 | 51.51948 | 4.54632 | 18109 ft | 324 kts | 226° |
| 2026-04-26 07:16 | 51.50350 | 4.52103 | 17711 ft | 321 kts | 226° |
| 2026-04-26 07:16 | 51.48758 | 4.49581 | 17310 ft | 320 kts | 226° |
| 2026-04-26 07:16 | 51.47179 | 4.47079 | 16923 ft | 318 kts | 226° |
| 2026-04-26 07:17 | 51.45607 | 4.44596 | 16541 ft | 316 kts | 225° |
| 2026-04-26 07:17 | 51.44040 | 4.42129 | 16160 ft | 315 kts | 226° |
| 2026-04-26 07:17 | 51.42474 | 4.39666 | 15784 ft | 314 kts | 226° |
| 2026-04-26 07:17 | 51.40871 | 4.37293 | 15418 ft | 314 kts | 219° |
| 2026-04-26 07:18 | 51.39008 | 4.35475 | 15311 ft | 315 kts | 207° |
| 2026-04-26 07:18 | 51.37017 | 4.33975 | 15325 ft | 317 kts | 206° |
| 2026-04-26 07:18 | 51.35030 | 4.32460 | 15329 ft | 317 kts | 207° |
| 2026-04-26 07:18 | 51.33041 | 4.30938 | 15324 ft | 317 kts | 207° |
| 2026-04-26 07:19 | 51.31049 | 4.29416 | 15314 ft | 317 kts | 207° |
| 2026-04-26 07:19 | 51.29028 | 4.27878 | 14572 ft | 328 kts | 207° |
| 2026-04-26 07:19 | 51.26971 | 4.26315 | 14004 ft | 333 kts | 207° |
| 2026-04-26 07:19 | 51.24876 | 4.24729 | 13497 ft | 333 kts | 206° |
| 2026-04-26 07:20 | 51.22785 | 4.23147 | 13031 ft | 332 kts | 207° |
| 2026-04-26 07:20 | 51.20704 | 4.21575 | 12569 ft | 330 kts | 206° |
| 2026-04-26 07:20 | 51.18636 | 4.20013 | 12138 ft | 328 kts | 206° |
| 2026-04-26 07:20 | 51.16576 | 4.18456 | 11737 ft | 325 kts | 207° |
| 2026-04-26 07:21 | 51.14541 | 4.16876 | 11276 ft | 324 kts | 207° |
| 2026-04-26 07:21 | 51.12533 | 4.15257 | 10841 ft | 323 kts | 208° |
| 2026-04-26 07:21 | 51.10572 | 4.13658 | 10647 ft | 308 kts | 208° |
| 2026-04-26 07:21 | 51.08694 | 4.12127 | 10069 ft | 300 kts | 208° |
| 2026-04-26 07:22 | 51.06850 | 4.10629 | 9408 ft | 295 kts | 208° |
| 2026-04-26 07:22 | 51.05038 | 4.09164 | 9100 ft | 291 kts | 208° |
| 2026-04-26 07:22 | 51.03229 | 4.07708 | 8792 ft | 292 kts | 208° |
| 2026-04-26 07:22 | 51.01417 | 4.06252 | 8471 ft | 291 kts | 207° |
| 2026-04-26 07:23 | 50.99635 | 4.04822 | 8147 ft | 290 kts | 208° |
| 2026-04-26 07:23 | 50.97840 | 4.03380 | 7828 ft | 287 kts | 207° |
| 2026-04-26 07:23 | 50.96057 | 4.01961 | 7513 ft | 286 kts | 205° |
| 2026-04-26 07:23 | 50.94139 | 4.01174 | 7194 ft | 285 kts | 182° |
| 2026-04-26 07:24 | 50.92188 | 4.01602 | 6876 ft | 284 kts | 159° |
| 2026-04-26 07:24 | 50.90498 | 4.03142 | 6525 ft | 281 kts | 136° |
| 2026-04-26 07:24 | 50.89165 | 4.05375 | 6195 ft | 279 kts | 130° |
| 2026-04-26 07:24 | 50.87739 | 4.07425 | 5861 ft | 275 kts | 144° |
| 2026-04-26 07:25 | 50.86095 | 4.08806 | 5547 ft | 260 kts | 154° |
| 2026-04-26 07:25 | 50.84491 | 4.09950 | 5266 ft | 246 kts | 154° |
| 2026-04-26 07:25 | 50.82976 | 4.11040 | 4915 ft | 234 kts | 152° |
| 2026-04-26 07:25 | 50.81759 | 4.12635 | 4465 ft | 224 kts | 119° |
| 2026-04-26 07:26 | 50.81315 | 4.14846 | 4156 ft | 209 kts | 87° |
| 2026-04-26 07:26 | 50.81624 | 4.16989 | 3946 ft | 196 kts | 64° |
| 2026-04-26 07:26 | 50.82179 | 4.18906 | 3692 ft | 189 kts | 63° |
| 2026-04-26 07:26 | 50.82714 | 4.20764 | 3473 ft | 182 kts | 64° |
| 2026-04-26 07:27 | 50.83227 | 4.22556 | 3248 ft | 175 kts | 64° |
| 2026-04-26 07:27 | 50.83723 | 4.24279 | 3045 ft | 170 kts | 64° |
| 2026-04-26 07:27 | 50.84207 | 4.25951 | 2849 ft | 168 kts | 64° |
| 2026-04-26 07:27 | 50.84696 | 4.27630 | 2610 ft | 168 kts | 65° |
| 2026-04-26 07:28 | 50.85178 | 4.29287 | 2396 ft | 165 kts | 65° |
| 2026-04-26 07:28 | 50.85649 | 4.30911 | 2170 ft | 159 kts | 66° |
| 2026-04-26 07:28 | 50.86080 | 4.32391 | 1973 ft | 140 kts | 66° |
| 2026-04-26 07:28 | 50.86451 | 4.33667 | 1799 ft | 134 kts | 65° |
| 2026-04-26 07:29 | 50.86833 | 4.34985 | 1627 ft | 131 kts | 66° |
| 2026-04-26 07:29 | 50.87208 | 4.36288 | 1445 ft | 129 kts | 66° |
| 2026-04-26 07:29 | 50.87575 | 4.37579 | 1300 ft | 128 kts | 66° |
| 2026-04-26 07:29 | 50.87949 | 4.38868 | 1142 ft | 129 kts | 66° |
| 2026-04-26 07:30 | 50.88322 | 4.40146 | 985 ft | 128 kts | 65° |
| 2026-04-26 07:30 | 50.88568 | 4.40997 | 881 ft | 128 kts | 66° |
| 2026-04-26 07:30 | 50.88933 | 4.42283 | 674 ft | 130 kts | 65° |
| 2026-04-26 07:30 | 50.89307 | 4.43569 | 498 ft | 129 kts | 64° |
| 2026-04-26 07:31 | 50.89685 | 4.44851 | 328 ft | 128 kts | 65° |
| 2026-04-26 07:31 | 50.90056 | 4.46142 | 162 ft | 126 kts | 66° |
| 2026-04-26 07:31 | 50.90384 | 4.47274 | 123 ft | 95 kts | 65° |
| 2026-04-26 07:31 | 50.90593 | 4.47997 | 120 ft | 52 kts | 65° |
| 2026-04-26 07:32 | 50.90654 | 4.48291 | 120 ft | 17 kts | 105° |
| 2026-04-26 07:32 | 50.90596 | 4.48462 | 121 ft | 19 kts | 120° |
| 2026-04-26 07:32 | 50.90542 | 4.48583 | 120 ft | 10 kts | 153° |
| 2026-04-26 07:32 | 50.90493 | 4.48542 | 118 ft | 8 kts | 246° |
| 2026-04-26 07:33 | 50.90469 | 4.48462 | 119 ft | 8 kts | 244° |
| 2026-04-26 07:33 | 50.90446 | 4.48388 | 120 ft | 7 kts | 245° |
| 2026-04-26 07:33 | 50.90424 | 4.48322 | 120 ft | 5 kts | 222° |
| 2026-04-26 07:33 | 50.90392 | 4.48334 | 118 ft | 5 kts | 149° |
| 2026-04-26 07:34 | 50.90366 | 4.48354 | 119 ft | 4 kts | 155° |
| 2026-04-26 07:34 | 50.90343 | 4.48371 | 120 ft | 2 kts | 155° |
| 2026-04-26 07:34 | 50.90339 | 4.48374 | 120 ft | 0 kts | 155° |